| time (UTC) | temp F | wind direction | speed MPH | gust MPH | rain 1hr in | rain 24hr in | rain mn in | humidity % | barometer mb |
| 20260509201525 | 82 | 177 | 1.0 | 1.0 | 0.00 | 0.00 | 0.00 | 82 | 1013.9 |
| 20260509201028 | 82 | 151 | 0.0 | 1.0 | 0.00 | 0.00 | 0.00 | 82 | 1013.9 |
| 20260509200524 | 82 | 173 | 1.0 | 1.0 | 0.00 | 0.00 | 0.00 | 81 | 1013.5 |
| 20260509200025 | 82 | 165 | 1.0 | 2.0 | 0.00 | 0.00 | 0.00 | 81 | 1013.9 |
| 20260509195524 | 82 | 185 | 3.0 | 3.0 | 0.00 | 0.00 | 0.00 | 81 | 1013.9 |
| 20260509195030 | 82 | 209 | 3.0 | 3.0 | 0.00 | 0.00 | 0.00 | 80 | 1013.9 |
| 20260509194525 | 82 | 205 | 2.0 | 2.0 | 0.00 | 0.00 | 0.00 | 80 | 1013.5 |
| 20260509194024 | 82 | 190 | 2.0 | 2.0 | 0.00 | 0.00 | 0.00 | 80 | 1013.9 |
| 20260509193529 | 82 | 190 | 1.0 | 1.0 | 0.00 | 0.00 | 0.00 | 81 | 1013.9 |
| 20260509193024 | 82 | 199 | 0.0 | 1.0 | 0.00 | 0.00 | 0.00 | 81 | 1013.9 |
| 20260509192525 | 82 | 182 | 1.0 | 1.0 | 0.00 | 0.00 | 0.00 | 80 | 1013.9 |
| 20260509192025 | 82 | 168 | 1.0 | 1.0 | 0.00 | 0.00 | 0.00 | 80 | 1013.9 |
| 20260509191524 | 82 | 182 | 1.0 | 1.0 | 0.00 | 0.00 | 0.00 | 80 | 1013.9 |
| 20260509191025 | 82 | 192 | 2.0 | 2.0 | 0.00 | 0.00 | 0.00 | 80 | 1013.9 |
| 20260509190524 | 82 | 175 | 1.0 | 2.0 | 0.00 | 0.00 | 0.00 | 80 | 1014.2 |
| 20260509190025 | 82 | 171 | 1.0 | 1.0 | 0.00 | 0.00 | 0.00 | 79 | 1014.2 |
| 20260509185524 | 83 | 184 | 1.0 | 1.0 | 0.00 | 0.00 | 0.00 | 80 | 1014.2 |
| 20260509185025 | 82 | 179 | 1.0 | 1.0 | 0.00 | 0.00 | 0.00 | 80 | 1014.2 |
| 20260509184524 | 83 | 207 | 1.0 | 1.0 | 0.00 | 0.00 | 0.00 | 80 | 1014.2 |
| 20260509184025 | 83 | 216 | 4.0 | 5.0 | 0.00 | 0.00 | 0.00 | 79 | 1014.2 |
| 20260509183524 | 83 | 242 | 1.0 | 1.0 | 0.00 | 0.00 | 0.00 | 79 | 1014.6 |
| 20260509183024 | 83 | 206 | 3.0 | 3.0 | 0.00 | 0.00 | 0.00 | 79 | 1014.6 |
| 20260509182524 | 83 | 222 | 1.0 | 2.0 | 0.00 | 0.00 | 0.00 | 79 | 1014.6 |
| 20260509182025 | 83 | 199 | 3.0 | 5.0 | 0.00 | 0.00 | 0.00 | 79 | 1014.6 |
| 20260509181524 | 83 | 195 | 3.0 | 3.0 | 0.00 | 0.00 | 0.00 | 79 | 1014.9 |
| 20260509181024 | 83 | 185 | 2.0 | 2.0 | 0.00 | 0.00 | 0.00 | 78 | 1014.9 |
| 20260509180524 | 83 | 195 | 1.0 | 1.0 | 0.00 | 0.00 | 0.00 | 78 | 1015.2 |
| 20260509180025 | 83 | 206 | 1.0 | 1.0 | 0.00 | 0.00 | 0.00 | 78 | 1015.2 |
| 20260509175527 | 83 | 196 | 1.0 | 1.0 | 0.00 | 0.00 | 0.00 | 78 | 1015.2 |
| 20260509175024 | 83 | 200 | 2.0 | 2.0 | 0.00 | 0.00 | 0.00 | 78 | 1015.2 |
| 20260509174526 | 83 | 206 | 2.0 | 2.0 | 0.00 | 0.00 | 0.00 | 78 | 1015.2 |
| 20260509174024 | 83 | 215 | 2.0 | 2.0 | 0.00 | 0.00 | 0.00 | 78 | 1015.2 |
| 20260509173524 | 83 | 200 | 1.0 | 2.0 | 0.00 | 0.00 | 0.00 | 78 | 1015.2 |
| 20260509173024 | 83 | 226 | 2.0 | 2.0 | 0.00 | 0.00 | 0.00 | 78 | 1015.2 |
| 20260509172527 | 83 | 221 | 2.0 | 2.0 | 0.00 | 0.00 | 0.00 | 78 | 1015.6 |
| 20260509172025 | 84 | 219 | 1.0 | 2.0 | 0.00 | 0.00 | 0.00 | 78 | 1015.6 |
| 20260509171524 | 84 | 205 | 2.0 | 2.0 | 0.00 | 0.00 | 0.00 | 78 | 1015.6 |
| 20260509171025 | 84 | 153 | 2.0 | 2.0 | 0.00 | 0.00 | 0.00 | 78 | 1015.6 |
| 20260509170525 | 84 | 180 | 1.0 | 2.0 | 0.00 | 0.00 | 0.00 | 78 | 1015.9 |
| 20260509170025 | 84 | 206 | 1.0 | 2.0 | 0.00 | 0.00 | 0.00 | 78 | 1015.9 |
| 20260509165524 | 84 | 175 | 2.0 | 2.0 | 0.00 | 0.00 | 0.00 | 78 | 1015.6 |
| 20260509165024 | 84 | 191 | 3.0 | 3.0 | 0.00 | 0.00 | 0.00 | 78 | 1015.9 |
| 20260509164525 | 84 | 208 | 2.0 | 2.0 | 0.00 | 0.00 | 0.00 | 78 | 1015.6 |
| 20260509164024 | 84 | 203 | 3.0 | 3.0 | 0.00 | 0.00 | 0.00 | 78 | 1015.9 |
| 20260509163525 | 84 | 200 | 3.0 | 3.0 | 0.00 | 0.00 | 0.00 | 78 | 1015.9 |
| 20260509163025 | 84 | 218 | 1.0 | 2.0 | 0.00 | 0.00 | 0.00 | 79 | 1015.9 |
| 20260509162525 | 84 | 211 | 1.0 | 1.0 | 0.00 | 0.00 | 0.00 | 78 | 1015.9 |
| 20260509162025 | 84 | 238 | 1.0 | 1.0 | 0.00 | 0.00 | 0.00 | 78 | 1015.9 |
| 20260509161524 | 84 | 217 | 1.0 | 1.0 | 0.00 | 0.00 | 0.00 | 78 | 1015.9 |
| 20260509161025 | 84 | 232 | 2.0 | 2.0 | 0.00 | 0.00 | 0.00 | 78 | 1015.6 |
| 20260509160525 | 84 | 233 | 2.0 | 2.0 | 0.00 | 0.00 | 0.00 | 78 | 1015.6 |
| 20260509160025 | 84 | 230 | 1.0 | 1.0 | 0.00 | 0.00 | 0.00 | 77 | 1015.6 |
| 20260509155524 | 85 | 231 | 3.0 | 3.0 | 0.00 | 0.00 | 0.00 | 77 | 1015.6 |
| 20260509155024 | 85 | 202 | 2.0 | 2.0 | 0.00 | 0.00 | 0.00 | 76 | 1015.6 |
| 20260509154525 | 85 | 157 | 1.0 | 1.0 | 0.00 | 0.00 | 0.00 | 77 | 1015.6 |
| 20260509154024 | 85 | 185 | 0.0 | 0.0 | 0.00 | 0.00 | 0.00 | 77 | 1015.6 |
| 20260509153524 | 85 | 193 | 0.0 | 0.0 | 0.00 | 0.00 | 0.00 | 76 | 1015.6 |
| 20260509153024 | 85 | 184 | 0.0 | 0.0 | 0.00 | 0.00 | 0.00 | 76 | 1015.2 |
| 20260509152524 | 85 | 210 | 0.0 | 0.0 | 0.00 | 0.00 | 0.00 | 76 | 1015.6 |
| 20260509152026 | 85 | 196 | 0.0 | 1.0 | 0.00 | 0.00 | 0.00 | 76 | 1015.6 |
| 20260509151526 | 85 | 184 | 2.0 | 2.0 | 0.00 | 0.00 | 0.00 | 76 | 1015.6 |
| 20260509151025 | 85 | 207 | 1.0 | 1.0 | 0.00 | 0.00 | 0.00 | 76 | 1015.6 |
| 20260509150524 | 85 | 175 | 1.0 | 1.0 | 0.00 | 0.00 | 0.00 | 76 | 1015.6 |
| 20260509150025 | 84 | 185 | 0.0 | 0.0 | 0.00 | 0.00 | 0.00 | 76 | 1015.6 |
| 20260509145525 | 84 | 181 | 1.0 | 1.0 | 0.00 | 0.00 | 0.00 | 76 | 1015.6 |
| 20260509145025 | 85 | 176 | 1.0 | 1.0 | 0.00 | 0.00 | 0.00 | 76 | 1015.6 |
| 20260509144525 | 85 | 210 | 1.0 | 1.0 | 0.00 | 0.00 | 0.00 | 76 | 1015.6 |
| 20260509144025 | 85 | 195 | 2.0 | 2.0 | 0.00 | 0.00 | 0.00 | 76 | 1015.6 |
| 20260509143525 | 85 | 216 | 1.0 | 1.0 | 0.00 | 0.00 | 0.00 | 76 | 1015.6 |
| 20260509143024 | 85 | 172 | 0.0 | 0.0 | 0.00 | 0.00 | 0.00 | 76 | 1015.6 |
| 20260509142525 | 85 | 144 | 3.0 | 3.0 | 0.00 | 0.00 | 0.00 | 76 | 1015.6 |
| 20260509142025 | 85 | 242 | 3.0 | 3.0 | 0.00 | 0.00 | 0.00 | 76 | 1015.6 |
| 20260509141524 | 85 | 177 | 2.0 | 2.0 | 0.00 | 0.00 | 0.00 | 75 | 1015.6 |
| 20260509141025 | 85 | 196 | 2.0 | 2.0 | 0.00 | 0.00 | 0.00 | 75 | 1015.2 |
| 20260509140524 | 85 | 196 | 2.0 | 2.0 | 0.00 | 0.00 | 0.00 | 75 | 1015.6 |
| 20260509140025 | 85 | 165 | 1.0 | 1.0 | 0.00 | 0.00 | 0.00 | 75 | 1015.2 |
| 20260509135524 | 85 | 156 | 2.0 | 3.0 | 0.00 | 0.00 | 0.00 | 75 | 1015.2 |
| 20260509135025 | 85 | 161 | 2.0 | 2.0 | 0.00 | 0.00 | 0.00 | 75 | 1015.2 |
| 20260509134524 | 85 | 155 | 2.0 | 2.0 | 0.00 | 0.00 | 0.00 | 74 | 1015.2 |
| 20260509134025 | 85 | 217 | 1.0 | 2.0 | 0.00 | 0.00 | 0.00 | 75 | 1015.6 |
| 20260509133524 | 85 | 187 | 3.0 | 3.0 | 0.00 | 0.00 | 0.00 | 74 | 1015.2 |
| 20260509133024 | 85 | 188 | 2.0 | 2.0 | 0.00 | 0.00 | 0.00 | 74 | 1015.2 |
| 20260509132524 | 85 | 182 | 1.0 | 2.0 | 0.00 | 0.00 | 0.00 | 75 | 1015.2 |
| 20260509132025 | 85 | 148 | 2.0 | 3.0 | 0.00 | 0.00 | 0.00 | 75 | 1015.2 |
| 20260509131525 | 85 | 165 | 1.0 | 2.0 | 0.00 | 0.00 | 0.00 | 75 | 1015.2 |
| 20260509131024 | 85 | 132 | 3.0 | 3.0 | 0.00 | 0.00 | 0.00 | 75 | 1014.9 |
| 20260509130525 | 85 | 142 | 2.0 | 2.0 | 0.00 | 0.00 | 0.00 | 75 | 1014.9 |
| 20260509130025 | 85 | 143 | 2.0 | 2.0 | 0.00 | 0.00 | 0.00 | 75 | 1014.9 |
| 20260509125524 | 85 | 138 | 1.0 | 1.0 | 0.00 | 0.00 | 0.00 | 75 | 1014.9 |
| 20260509125024 | 85 | 160 | 1.0 | 2.0 | 0.00 | 0.00 | 0.00 | 75 | 1014.6 |
| 20260509124525 | 85 | 157 | 3.0 | 3.0 | 0.00 | 0.00 | 0.00 | 75 | 1014.6 |
| 20260509124024 | 85 | 164 | 2.0 | 2.0 | 0.00 | 0.00 | 0.00 | 75 | 1014.6 |
| 20260509123524 | 85 | 121 | 3.0 | 3.0 | 0.00 | 0.00 | 0.00 | 75 | 1014.6 |
| 20260509123024 | 85 | 151 | 1.0 | 1.0 | 0.00 | 0.00 | 0.00 | 75 | 1014.6 |
| 20260509122524 | 85 | 122 | 5.0 | 6.0 | 0.00 | 0.00 | 0.00 | 74 | 1014.6 |
| 20260509122024 | 85 | 151 | 3.0 | 3.0 | 0.00 | 0.00 | 0.00 | 75 | 1014.6 |
| 20260509121524 | 85 | 172 | 1.0 | 1.0 | 0.00 | 0.00 | 0.00 | 76 | 1014.6 |
| 20260509121025 | 85 | 178 | 1.0 | 1.0 | 0.00 | 0.00 | 0.00 | 78 | 1014.2 |
| 20260509120525 | 84 | 190 | 1.0 | 1.0 | 0.00 | 0.00 | 0.00 | 79 | 1014.2 |
| 20260509120024 | 84 | 192 | 0.0 | 0.0 | 0.00 | 0.00 | 0.00 | 79 | 1014.2 |
| 20260509115525 | 84 | 192 | 0.0 | 0.0 | 0.00 | 0.00 | 0.00 | 79 | 1014.2 |
| 20260509115025 | 84 | 193 | 1.0 | 1.0 | 0.00 | 0.00 | 0.00 | 79 | 1014.2 |
| 20260509114525 | 84 | 191 | 0.0 | 0.0 | 0.00 | 0.00 | 0.00 | 80 | 1013.9 |
| 20260509114025 | 84 | 191 | 0.0 | 0.0 | 0.00 | 0.00 | 0.00 | 80 | 1014.2 |
| 20260509113524 | 84 | 191 | 0.0 | 0.0 | 0.00 | 0.00 | 0.00 | 80 | 1013.9 |
| 20260509113025 | 84 | 188 | 1.0 | 1.0 | 0.00 | 0.00 | 0.00 | 80 | 1013.9 |
| 20260509112524 | 83 | 189 | 1.0 | 1.0 | 0.00 | 0.00 | 0.00 | 81 | 1013.9 |
| 20260509112026 | 83 | 205 | 0.0 | 0.0 | 0.00 | 0.00 | 0.00 | 81 | 1013.9 |
| 20260509111524 | 83 | 277 | 0.0 | 0.0 | 0.00 | 0.00 | 0.00 | 80 | 1013.9 |
| 20260509111024 | 83 | 188 | 0.0 | 0.0 | 0.00 | 0.00 | 0.00 | 80 | 1013.9 |
| 20260509110524 | 82 | 320 | 0.0 | 0.0 | 0.00 | 0.00 | 0.00 | 81 | 1013.9 |
| 20260509110025 | 82 | 257 | 0.0 | 1.0 | 0.00 | 0.00 | 0.00 | 82 | 1013.5 |
| 20260509105524 | 82 | 209 | 1.0 | 1.0 | 0.00 | 0.00 | 0.00 | 85 | 1013.9 |
| 20260509105025 | 82 | 248 | 1.0 | 1.0 | 0.00 | 0.00 | 0.00 | 85 | 1013.5 |
| 20260509104524 | 82 | 205 | 0.0 | 0.0 | 0.00 | 0.00 | 0.00 | 85 | 1013.2 |
| 20260509104024 | 82 | 352 | 2.0 | 3.0 | 0.00 | 0.00 | 0.00 | 84 | 1013.5 |
| 20260509103525 | 83 | 342 | 3.0 | 5.0 | 0.00 | 0.00 | 0.00 | 82 | 1013.2 |
| 20260509103024 | 84 | 9 | 4.0 | 5.0 | 0.00 | 0.00 | 0.00 | 77 | 1013.9 |
| 20260509102525 | 85 | 8 | 7.0 | 9.0 | 0.00 | 0.00 | 0.00 | 76 | 1013.5 |
| 20260509102024 | 86 | 6 | 2.0 | 2.0 | 0.00 | 0.00 | 0.00 | 72 | 1013.5 |
| 20260509101525 | 87 | 197 | 0.0 | 1.0 | 0.00 | 0.00 | 0.00 | 73 | 1013.2 |
| 20260509101026 | 87 | 100 | 5.0 | 6.0 | 0.00 | 0.00 | 0.00 | 74 | 1013.2 |
| 20260509100524 | 87 | 7 | 5.0 | 7.0 | 0.00 | 0.00 | 0.00 | 74 | 1013.2 |
| 20260509100024 | 87 | 16 | 3.0 | 5.0 | 0.00 | 0.00 | 0.00 | 74 | 1012.9 |
| 20260509095525 | 87 | 88 | 3.0 | 5.0 | 0.00 | 0.00 | 0.00 | 74 | 1012.9 |
| 20260509095025 | 87 | 53 | 2.0 | 3.0 | 0.00 | 0.00 | 0.00 | 73 | 1012.9 |
| 20260509094524 | 87 | 280 | 3.0 | 3.0 | 0.00 | 0.00 | 0.00 | 74 | 1012.9 |
| 20260509094024 | 87 | 347 | 2.0 | 2.0 | 0.00 | 0.00 | 0.00 | 74 | 1012.9 |
| 20260509093524 | 87 | 286 | 8.0 | 10.0 | 0.00 | 0.00 | 0.00 | 74 | 1012.9 |
| 20260509093024 | 87 | 35 | 6.0 | 7.0 | 0.00 | 0.00 | 0.00 | 73 | 1012.9 |
| 20260509092524 | 87 | 81 | 7.0 | 9.0 | 0.00 | 0.00 | 0.00 | 73 | 1012.9 |
| 20260509092024 | 87 | 278 | 2.0 | 5.0 | 0.00 | 0.00 | 0.00 | 73 | 1012.9 |
| 20260509091524 | 87 | 359 | 1.0 | 2.0 | 0.00 | 0.00 | 0.00 | 73 | 1012.5 |
| 20260509091024 | 87 | 2 | 5.0 | 6.0 | 0.00 | 0.00 | 0.00 | 72 | 1012.5 |
| 20260509090525 | 88 | 4 | 3.0 | 5.0 | 0.00 | 0.00 | 0.00 | 71 | 1012.5 |
| 20260509090025 | 88 | 112 | 6.0 | 8.0 | 0.00 | 0.00 | 0.00 | 71 | 1012.5 |
| 20260509085525 | 88 | 16 | 3.0 | 5.0 | 0.00 | 0.00 | 0.00 | 70 | 1012.5 |
| 20260509085025 | 88 | 321 | 2.0 | 2.0 | 0.00 | 0.00 | 0.00 | 70 | 1012.2 |
| 20260509084524 | 89 | 13 | 2.0 | 2.0 | 0.00 | 0.00 | 0.00 | 68 | 1012.5 |
| 20260509084024 | 89 | 46 | 6.0 | 7.0 | 0.00 | 0.00 | 0.00 | 67 | 1012.2 |
| 20260509083524 | 89 | 229 | 2.0 | 3.0 | 0.00 | 0.00 | 0.00 | 66 | 1012.2 |
| 20260509083024 | 90 | 276 | 4.0 | 5.0 | 0.00 | 0.00 | 0.00 | 64 | 1011.9 |
| 20260509082525 | 90 | 1 | 2.0 | 2.0 | 0.00 | 0.00 | 0.00 | 63 | 1012.2 |
| 20260509082024 | 90 | 65 | 5.0 | 7.0 | 0.00 | 0.00 | 0.00 | 63 | 1012.2 |
| 20260509081525 | 90 | 336 | 3.0 | 3.0 | 0.00 | 0.00 | 0.00 | 62 | 1012.2 |
| 20260509081024 | 91 | 8 | 5.0 | 6.0 | 0.00 | 0.00 | 0.00 | 61 | 1012.2 |
| 20260509080524 | 91 | 356 | 6.0 | 8.0 | 0.00 | 0.00 | 0.00 | 60 | 1012.2 |
| 20260509080025 | 91 | 83 | 5.0 | 6.0 | 0.00 | 0.00 | 0.00 | 60 | 1012.2 |
| 20260509075524 | 91 | 33 | 4.0 | 6.0 | 0.00 | 0.00 | 0.00 | 60 | 1012.2 |
| 20260509075024 | 92 | 19 | 5.0 | 6.0 | 0.00 | 0.00 | 0.00 | 59 | 1012.2 |
| 20260509074524 | 92 | 7 | 3.0 | 5.0 | 0.00 | 0.00 | 0.00 | 59 | 1012.2 |
| 20260509074024 | 93 | 14 | 7.0 | 8.0 | 0.00 | 0.00 | 0.00 | 58 | 1012.2 |
| 20260509073524 | 93 | 272 | 1.0 | 1.0 | 0.00 | 0.00 | 0.00 | 59 | 1012.2 |
| 20260509073024 | 92 | 357 | 1.0 | 1.0 | 0.00 | 0.00 | 0.00 | 59 | 1012.5 |
| 20260509072524 | 91 | 5 | 7.0 | 9.0 | 0.00 | 0.00 | 0.00 | 59 | 1012.2 |
| 20260509072025 | 92 | 335 | 5.0 | 6.0 | 0.00 | 0.00 | 0.00 | 59 | 1012.5 |
| 20260509071524 | 91 | 203 | 1.0 | 2.0 | 0.00 | 0.00 | 0.00 | 61 | 1012.5 |
| 20260509071025 | 91 | 68 | 3.0 | 5.0 | 0.00 | 0.00 | 0.00 | 62 | 1012.5 |
| 20260509070524 | 91 | 344 | 10.0 | 11.0 | 0.00 | 0.00 | 0.00 | 62 | 1012.9 |
| 20260509070025 | 90 | 35 | 7.0 | 10.0 | 0.00 | 0.00 | 0.00 | 64 | 1012.5 |
| 20260509065525 | 90 | 332 | 4.0 | 7.0 | 0.00 | 0.00 | 0.00 | 65 | 1012.5 |
| 20260509065024 | 89 | 79 | 4.0 | 8.0 | 0.00 | 0.00 | 0.00 | 64 | 1012.9 |
| 20260509064525 | 89 | 4 | 10.0 | 13.0 | 0.00 | 0.00 | 0.00 | 64 | 1012.9 |
| 20260509064024 | 89 | 281 | 3.0 | 5.0 | 0.00 | 0.00 | 0.00 | 68 | 1012.9 |
| 20260509063525 | 89 | 342 | 3.0 | 5.0 | 0.00 | 0.00 | 0.00 | 70 | 1012.9 |
| 20260509063025 | 89 | 10 | 9.0 | 10.0 | 0.00 | 0.00 | 0.00 | 69 | 1012.9 |
| 20260509062524 | 89 | 357 | 7.0 | 8.0 | 0.00 | 0.00 | 0.00 | 69 | 1013.2 |
| 20260509062024 | 89 | 61 | 5.0 | 6.0 | 0.00 | 0.00 | 0.00 | 69 | 1013.2 |
| 20260509061524 | 89 | 79 | 4.0 | 6.0 | 0.00 | 0.00 | 0.00 | 68 | 1013.2 |
| 20260509061024 | 90 | 9 | 3.0 | 5.0 | 0.00 | 0.00 | 0.00 | 68 | 1013.2 |
| 20260509060525 | 89 | 1 | 8.0 | 9.0 | 0.00 | 0.00 | 0.00 | 68 | 1013.2 |
| 20260509060025 | 91 | 8 | 11.0 | 14.0 | 0.00 | 0.00 | 0.00 | 65 | 1013.2 |
| 20260509055524 | 91 | 18 | 2.0 | 3.0 | 0.00 | 0.00 | 0.00 | 65 | 1013.2 |
| 20260509055024 | 92 | 34 | 9.0 | 11.0 | 0.00 | 0.00 | 0.00 | 63 | 1013.2 |
| 20260509054524 | 94 | 25 | 8.0 | 9.0 | 0.00 | 0.00 | 0.00 | 60 | 1013.2 |
| 20260509054024 | 92 | 39 | 4.0 | 6.0 | 0.00 | 0.00 | 0.00 | 62 | 1013.5 |
| 20260509053524 | 91 | 299 | 1.0 | 1.0 | 0.00 | 0.00 | 0.00 | 65 | 1013.5 |
| 20260509053025 | 91 | 14 | 4.0 | 5.0 | 0.00 | 0.00 | 0.00 | 64 | 1013.5 |
| 20260509052524 | 91 | 206 | 1.0 | 1.0 | 0.00 | 0.00 | 0.00 | 66 | 1013.5 |
| 20260509052024 | 91 | 2 | 9.0 | 9.0 | 0.00 | 0.00 | 0.00 | 63 | 1013.5 |
| 20260509051525 | 92 | 311 | 4.0 | 5.0 | 0.00 | 0.00 | 0.00 | 63 | 1013.9 |
| 20260509051028 | 91 | 314 | 3.0 | 5.0 | 0.00 | 0.00 | 0.00 | 64 | 1013.9 |
| 20260509050530 | 91 | 13 | 7.0 | 8.0 | 0.00 | 0.00 | 0.00 | 64 | 1013.9 |
| 20260509050025 | 91 | 2 | 4.0 | 5.0 | 0.00 | 0.00 | 0.00 | 65 | 1013.9 |
| 20260509045525 | 91 | 2 | 6.0 | 7.0 | 0.00 | 0.00 | 0.00 | 64 | 1013.9 |
| 20260509045024 | 91 | 159 | 2.0 | 2.0 | 0.00 | 0.00 | 0.00 | 64 | 1013.9 |
| 20260509044525 | 92 | 143 | 3.0 | 5.0 | 0.00 | 0.00 | 0.00 | 63 | 1013.9 |
| 20260509044024 | 91 | 53 | 3.0 | 3.0 | 0.00 | 0.00 | 0.00 | 63 | 1014.2 |
| 20260509043524 | 91 | 77 | 3.0 | 5.0 | 0.00 | 0.00 | 0.00 | 62 | 1014.2 |
| 20260509043026 | 92 | 101 | 1.0 | 1.0 | 0.00 | 0.00 | 0.00 | 62 | 1013.9 |
| 20260509042524 | 92 | 120 | 5.0 | 5.0 | 0.00 | 0.00 | 0.00 | 61 | 1014.2 |
| 20260509042024 | 91 | 343 | 2.0 | 2.0 | 0.00 | 0.00 | 0.00 | 62 | 1014.2 |
| 20260509041525 | 91 | 4 | 4.0 | 5.0 | 0.00 | 0.00 | 0.00 | 62 | 1014.6 |
| 20260509041025 | 92 | 194 | 1.0 | 3.0 | 0.00 | 0.00 | 0.00 | 62 | 1014.6 |
| 20260509040524 | 91 | 319 | 3.0 | 3.0 | 0.00 | 0.00 | 0.00 | 63 | 1014.6 |
| 20260509040024 | 90 | 337 | 3.0 | 3.0 | 0.00 | 0.00 | 0.00 | 66 | 1014.6 |
| 20260509035524 | 89 | 0 | 2.0 | 3.0 | 0.00 | 0.00 | 0.00 | 66 | 1014.9 |
| 20260509035024 | 89 | 9 | 5.0 | 6.0 | 0.00 | 0.00 | 0.00 | 68 | 1014.9 |
| 20260509034525 | 89 | 9 | 5.0 | 7.0 | 0.00 | 0.00 | 0.00 | 67 | 1014.9 |
| 20260509034025 | 89 | 8 | 5.0 | 6.0 | 0.00 | 0.00 | 0.00 | 69 | 1014.9 |
| 20260509033525 | 88 | 14 | 3.0 | 3.0 | 0.00 | 0.00 | 0.00 | 69 | 1015.2 |
| 20260509033024 | 88 | 8 | 5.0 | 6.0 | 0.00 | 0.00 | 0.00 | 69 | 1015.2 |
| 20260509032524 | 89 | 347 | 4.0 | 5.0 | 0.00 | 0.00 | 0.00 | 67 | 1015.2 |
| 20260509032025 | 88 | 358 | 1.0 | 2.0 | 0.00 | 0.00 | 0.00 | 69 | 1015.2 |
| 20260509031524 | 88 | 220 | 0.0 | 0.0 | 0.00 | 0.00 | 0.00 | 69 | 1015.2 |
| 20260509031025 | 88 | 357 | 2.0 | 3.0 | 0.00 | 0.00 | 0.00 | 69 | 1015.2 |
| 20260509030524 | 88 | 7 | 3.0 | 3.0 | 0.00 | 0.00 | 0.00 | 69 | 1015.6 |
| 20260509030025 | 89 | 16 | 3.0 | 3.0 | 0.00 | 0.00 | 0.00 | 68 | 1015.6 |
| 20260509025524 | 89 | 19 | 3.0 | 5.0 | 0.00 | 0.00 | 0.00 | 67 | 1015.2 |
| 20260509025024 | 89 | 64 | 3.0 | 5.0 | 0.00 | 0.00 | 0.00 | 66 | 1015.2 |
| 20260509024525 | 89 | 94 | 3.0 | 3.0 | 0.00 | 0.00 | 0.00 | 67 | 1015.6 |
| 20260509024024 | 89 | 222 | 0.0 | 0.0 | 0.00 | 0.00 | 0.00 | 68 | 1015.6 |
| 20260509023524 | 88 | 213 | 0.0 | 0.0 | 0.00 | 0.00 | 0.00 | 69 | 1015.6 |
| 20260509023025 | 88 | 155 | 1.0 | 1.0 | 0.00 | 0.00 | 0.00 | 70 | 1015.2 |
| 20260509022524 | 88 | 3 | 3.0 | 5.0 | 0.00 | 0.00 | 0.00 | 71 | 1015.6 |
| 20260509022025 | 88 | 229 | 2.0 | 2.0 | 0.00 | 0.00 | 0.00 | 70 | 1015.6 |
| 20260509021525 | 89 | 348 | 1.0 | 1.0 | 0.00 | 0.00 | 0.00 | 70 | 1015.6 |
| 20260509021024 | 89 | 326 | 1.0 | 2.0 | 0.00 | 0.00 | 0.00 | 70 | 1015.6 |
| 20260509020524 | 88 | 311 | 0.0 | 0.0 | 0.00 | 0.00 | 0.00 | 70 | 1015.6 |
| 20260509020024 | 87 | 192 | 0.0 | 0.0 | 0.00 | 0.00 | 0.00 | 72 | 1015.6 |
| 20260509015525 | 86 | 186 | 0.0 | 0.0 | 0.00 | 0.00 | 0.00 | 73 | 1015.6 |
| 20260509015024 | 86 | 174 | 1.0 | 1.0 | 0.00 | 0.00 | 0.00 | 73 | 1015.6 |
| 20260509014524 | 87 | 216 | 1.0 | 1.0 | 0.00 | 0.00 | 0.00 | 73 | 1015.6 |
| 20260509014024 | 86 | 196 | 0.0 | 0.0 | 0.00 | 0.00 | 0.00 | 73 | 1015.6 |
| 20260509013524 | 86 | 65 | 3.0 | 3.0 | 0.00 | 0.00 | 0.00 | 74 | 1015.9 |
| 20260509013024 | 86 | 145 | 3.0 | 3.0 | 0.00 | 0.00 | 0.00 | 74 | 1015.9 |
| 20260509012524 | 86 | 114 | 3.0 | 3.0 | 0.00 | 0.00 | 0.00 | 74 | 1015.6 |
| 20260509012026 | 86 | 196 | 1.0 | 2.0 | 0.00 | 0.00 | 0.00 | 75 | 1015.6 |
| 20260509011524 | 86 | 206 | 1.0 | 1.0 | 0.00 | 0.00 | 0.00 | 75 | 1015.6 |
| 20260509011028 | 85 | 206 | 1.0 | 1.0 | 0.00 | 0.00 | 0.00 | 77 | 1015.6 |
| 20260509010525 | 85 | 215 | 3.0 | 3.0 | 0.00 | 0.00 | 0.00 | 77 | 1015.6 |
| 20260509010025 | 84 | 191 | 2.0 | 2.0 | 0.00 | 0.00 | 0.00 | 77 | 1015.6 |
| 20260509005524 | 84 | 208 | 1.0 | 2.0 | 0.00 | 0.00 | 0.00 | 78 | 1015.6 |
| 20260509005024 | 84 | 191 | 2.0 | 2.0 | 0.00 | 0.00 | 0.00 | 77 | 1015.6 |
| 20260509004524 | 84 | 205 | 1.0 | 1.0 | 0.00 | 0.00 | 0.00 | 78 | 1015.6 |
| 20260509004025 | 84 | 211 | 1.0 | 1.0 | 0.00 | 0.00 | 0.00 | 77 | 1015.6 |
| 20260509003524 | 84 | 187 | 0.0 | 0.0 | 0.00 | 0.00 | 0.00 | 79 | 1015.2 |
| 20260509003024 | 83 | 179 | 1.0 | 1.0 | 0.00 | 0.00 | 0.00 | 79 | 1015.6 |
| 20260509002524 | 83 | 207 | 0.0 | 1.0 | 0.00 | 0.00 | 0.00 | 79 | 1015.2 |
| 20260509002024 | 83 | 201 | 0.0 | 0.0 | 0.00 | 0.00 | 0.00 | 80 | 1015.2 |
| 20260509001524 | 83 | 207 | 0.0 | 0.0 | 0.00 | 0.00 | 0.00 | 81 | 1015.2 |
| 20260509001024 | 83 | 193 | 0.0 | 0.0 | 0.00 | 0.00 | 0.00 | 80 | 1015.2 |
| 20260509000524 | 82 | 191 | 0.0 | 0.0 | 0.00 | 0.00 | 0.00 | 81 | 1015.2 |
| 20260509000026 | 82 | 202 | 0.0 | 1.0 | 0.00 | 0.00 | 0.00 | 82 | 1014.9 |
| 20260508235524 | 82 | 192 | 0.0 | 1.0 | 0.00 | 0.00 | 0.00 | 82 | 1014.9 |
| 20260508235025 | 82 | 194 | 1.0 | 1.0 | 0.00 | 0.00 | 0.00 | 83 | 1014.9 |
| 20260508234525 | 81 | 191 | 0.0 | 0.0 | 0.00 | 0.00 | 0.00 | 83 | 1014.9 |
| 20260508234025 | 81 | 213 | 1.0 | 1.0 | 0.00 | 0.00 | 0.00 | 84 | 1014.6 |
| 20260508233524 | 81 | 199 | 2.0 | 2.0 | 0.00 | 0.00 | 0.00 | 84 | 1014.6 |
| 20260508233025 | 81 | 193 | 1.0 | 1.0 | 0.00 | 0.00 | 0.00 | 85 | 1014.6 |
| 20260508232524 | 81 | 214 | 2.0 | 2.0 | 0.00 | 0.00 | 0.00 | 85 | 1014.6 |
| 20260508232024 | 81 | 195 | 2.0 | 2.0 | 0.00 | 0.00 | 0.00 | 85 | 1014.6 |
| 20260508231525 | 81 | 198 | 1.0 | 1.0 | 0.00 | 0.00 | 0.00 | 85 | 1014.6 |
| 20260508231025 | 81 | 215 | 2.0 | 2.0 | 0.00 | 0.00 | 0.00 | 84 | 1014.2 |
| 20260508230526 | 81 | 208 | 2.0 | 2.0 | 0.00 | 0.00 | 0.00 | 84 | 1014.2 |
| 20260508230026 | 81 | 190 | 4.0 | 5.0 | 0.00 | 0.00 | 0.00 | 84 | 1014.2 |
| 20260508225524 | 81 | 204 | 1.0 | 2.0 | 0.00 | 0.00 | 0.00 | 84 | 1014.2 |
| 20260508225024 | 81 | 219 | 2.0 | 2.0 | 0.00 | 0.00 | 0.00 | 84 | 1014.2 |
| 20260508224524 | 81 | 223 | 4.0 | 5.0 | 0.00 | 0.00 | 0.00 | 84 | 1013.9 |
| 20260508224024 | 81 | 175 | 2.0 | 2.0 | 0.00 | 0.00 | 0.00 | 84 | 1014.2 |
| 20260508223525 | 81 | 206 | 2.0 | 2.0 | 0.00 | 0.00 | 0.00 | 84 | 1013.9 |
| 20260508223026 | 81 | 224 | 2.0 | 2.0 | 0.00 | 0.00 | 0.00 | 84 | 1013.9 |
| 20260508222524 | 81 | 207 | 2.0 | 2.0 | 0.00 | 0.00 | 0.00 | 84 | 1013.9 |
| 20260508222026 | 81 | 197 | 0.0 | 1.0 | 0.00 | 0.00 | 0.00 | 85 | 1013.9 |
| 20260508221524 | 81 | 198 | 0.0 | 0.0 | 0.00 | 0.00 | 0.00 | 85 | 1013.9 |
| 20260508221024 | 81 | 203 | 1.0 | 1.0 | 0.00 | 0.00 | 0.00 | 85 | 1013.5 |
| 20260508220524 | 81 | 201 | 0.0 | 0.0 | 0.00 | 0.00 | 0.00 | 85 | 1013.9 |
| 20260508220025 | 81 | 201 | 0.0 | 0.0 | 0.00 | 0.00 | 0.00 | 85 | 1013.9 |
| 20260508215524 | 81 | 203 | 0.0 | 0.0 | 0.00 | 0.00 | 0.00 | 84 | 1013.5 |
| 20260508215025 | 82 | 208 | 0.0 | 0.0 | 0.00 | 0.00 | 0.00 | 84 | 1013.9 |
| 20260508214524 | 82 | 213 | 0.0 | 1.0 | 0.00 | 0.00 | 0.00 | 83 | 1013.9 |
| 20260508214025 | 82 | 225 | 0.0 | 1.0 | 0.00 | 0.00 | 0.00 | 83 | 1013.5 |
| 20260508213524 | 82 | 217 | 0.0 | 0.0 | 0.00 | 0.00 | 0.00 | 83 | 1013.9 |
| 20260508213024 | 82 | 226 | 1.0 | 1.0 | 0.00 | 0.00 | 0.00 | 83 | 1013.5 |
| 20260508212525 | 81 | 226 | 1.0 | 1.0 | 0.00 | 0.00 | 0.00 | 84 | 1013.5 |
| 20260508212025 | 81 | 234 | 1.0 | 2.0 | 0.00 | 0.00 | 0.00 | 84 | 1013.5 |
| 20260508211525 | 81 | 198 | 0.0 | 0.0 | 0.00 | 0.00 | 0.00 | 84 | 1013.5 |
| 20260508211024 | 81 | 184 | 0.0 | 0.0 | 0.00 | 0.00 | 0.00 | 84 | 1013.5 |
| 20260508210524 | 81 | 179 | 0.0 | 0.0 | 0.00 | 0.00 | 0.00 | 84 | 1013.5 |
| 20260508210024 | 82 | 191 | 0.0 | 0.0 | 0.00 | 0.00 | 0.00 | 84 | 1013.5 |
| 20260508205524 | 82 | 189 | 1.0 | 1.0 | 0.00 | 0.00 | 0.00 | 83 | 1013.5 |
| 20260508205026 | 82 | 199 | 1.0 | 1.0 | 0.00 | 0.00 | 0.00 | 83 | 1013.5 |
| 20260508204525 | 82 | 201 | 0.0 | 0.0 | 0.00 | 0.00 | 0.00 | 83 | 1013.9 |
| 20260508204025 | 82 | 214 | 1.0 | 1.0 | 0.00 | 0.00 | 0.00 | 83 | 1013.9 |
| 20260508203524 | 82 | 208 | 0.0 | 0.0 | 0.00 | 0.00 | 0.00 | 83 | 1013.9 |
| 20260508203024 | 82 | 205 | 0.0 | 0.0 | 0.00 | 0.00 | 0.00 | 83 | 1013.5 |
| 20260508202525 | 82 | 200 | 0.0 | 0.0 | 0.00 | 0.00 | 0.00 | 83 | 1013.9 |
| 20260508202025 | 82 | 182 | 0.0 | 0.0 | 0.00 | 0.00 | 0.00 | 83 | 1013.9 |